GLD1204 SBGR-SBNF
Flight info
| Callsign | GLD1204 |
|---|---|
| Flight time | 0h 53m |
| Altitude | 36000 |
| Route | MADNI UZ92 PUBIS |
| Aircraft | A20N/M-SDE2E3FGHIRWXY/LB1 |
Departure
| Time | 2026-04-22 23:47 |
|---|---|
| Airport | São Paulo/Guarulhos–Governor André Franco Montoro International Airport (SBGR) |
Arrival
| Time | 2026-04-23 00:41 |
|---|---|
| Airport | Ministro Victor Konder International Airport (SBNF) |
| Time | Latitude | Longitude | Altitude | Speed | Heading |
|---|---|---|---|---|---|
| 2026-04-22 23:23 | -23.42796 | -46.48064 | 2455 ft | 0 kts | 88° |
| 2026-04-22 23:37 | -23.42796 | -46.48067 | 2454 ft | 1 kts | 88° |
| 2026-04-22 23:38 | -23.42797 | -46.48076 | 2455 ft | 1 kts | 88° |
| 2026-04-22 23:38 | -23.42797 | -46.48084 | 2460 ft | 1 kts | 88° |
| 2026-04-22 23:38 | -23.42797 | -46.48093 | 2457 ft | 1 kts | 88° |
| 2026-04-22 23:38 | -23.42797 | -46.48101 | 2455 ft | 1 kts | 88° |
| 2026-04-22 23:39 | -23.42798 | -46.48110 | 2455 ft | 1 kts | 88° |
| 2026-04-22 23:39 | -23.42798 | -46.48118 | 2455 ft | 1 kts | 101° |
| 2026-04-22 23:39 | -23.42796 | -46.48126 | 2455 ft | 1 kts | 122° |
| 2026-04-22 23:39 | -23.42791 | -46.48133 | 2464 ft | 1 kts | 144° |
| 2026-04-22 23:40 | -23.42785 | -46.48138 | 2464 ft | 1 kts | 166° |
| 2026-04-22 23:40 | -23.42784 | -46.48138 | 2464 ft | 0 kts | 169° |
| 2026-04-22 23:42 | -23.42790 | -46.48137 | 2464 ft | 2 kts | 169° |
| 2026-04-22 23:42 | -23.42818 | -46.48132 | 2463 ft | 5 kts | 173° |
| 2026-04-22 23:42 | -23.42865 | -46.48129 | 2456 ft | 8 kts | 179° |
| 2026-04-22 23:42 | -23.42929 | -46.48136 | 2460 ft | 10 kts | 187° |
| 2026-04-22 23:43 | -23.43009 | -46.48132 | 2457 ft | 13 kts | 174° |
| 2026-04-22 23:43 | -23.43093 | -46.48131 | 2458 ft | 11 kts | 196° |
| 2026-04-22 23:43 | -23.43137 | -46.48204 | 2457 ft | 13 kts | 255° |
| 2026-04-22 23:43 | -23.43163 | -46.48309 | 2455 ft | 16 kts | 255° |
| 2026-04-22 23:44 | -23.43240 | -46.48373 | 2464 ft | 16 kts | 172° |
| 2026-04-22 23:44 | -23.43286 | -46.48366 | 2457 ft | 1 kts | 171° |
| 2026-04-22 23:44 | -23.43310 | -46.48362 | 2458 ft | 6 kts | 171° |
| 2026-04-22 23:44 | -23.43370 | -46.48344 | 2458 ft | 11 kts | 162° |
| 2026-04-22 23:45 | -23.43414 | -46.48285 | 2453 ft | 11 kts | 80° |
| 2026-04-22 23:45 | -23.43412 | -46.48275 | 2460 ft | 0 kts | 77° |
| 2026-04-22 23:46 | -23.43386 | -46.48168 | 2457 ft | 47 kts | 73° |
| 2026-04-22 23:46 | -23.43230 | -46.47580 | 2453 ft | 112 kts | 72° |
| 2026-04-22 23:47 | -23.42950 | -46.46587 | 2466 ft | 159 kts | 70° |
| 2026-04-22 23:47 | -23.42614 | -46.45439 | 2979 ft | 160 kts | 70° |
| 2026-04-22 23:47 | -23.42280 | -46.44248 | 3491 ft | 171 kts | 73° |
| 2026-04-22 23:47 | -23.41927 | -46.42941 | 3891 ft | 190 kts | 71° |
| 2026-04-22 23:48 | -23.41476 | -46.41507 | 4340 ft | 211 kts | 70° |
| 2026-04-22 23:48 | -23.40966 | -46.39915 | 4806 ft | 235 kts | 70° |
| 2026-04-22 23:48 | -23.40413 | -46.38148 | 5349 ft | 258 kts | 71° |
| 2026-04-22 23:48 | -23.40130 | -46.36151 | 5925 ft | 275 kts | 91° |
| 2026-04-22 23:49 | -23.40515 | -46.34094 | 6769 ft | 282 kts | 109° |
| 2026-04-22 23:49 | -23.41196 | -46.32078 | 7709 ft | 283 kts | 110° |
| 2026-04-22 23:49 | -23.41875 | -46.30047 | 8408 ft | 287 kts | 110° |
| 2026-04-22 23:49 | -23.42570 | -46.28003 | 8753 ft | 288 kts | 114° |
| 2026-04-22 23:50 | -23.43697 | -46.26264 | 8966 ft | 286 kts | 139° |
| 2026-04-22 23:50 | -23.45401 | -46.25181 | 9192 ft | 285 kts | 163° |
| 2026-04-22 23:50 | -23.47146 | -46.24959 | 9401 ft | 286 kts | 185° |
| 2026-04-22 23:50 | -23.49113 | -46.25332 | 9637 ft | 287 kts | 191° |
| 2026-04-22 23:51 | -23.50909 | -46.25748 | 9858 ft | 287 kts | 191° |
| 2026-04-22 23:51 | -23.52864 | -46.26208 | 10075 ft | 288 kts | 194° |
| 2026-04-22 23:51 | -23.54676 | -46.27148 | 10278 ft | 296 kts | 217° |
| 2026-04-22 23:51 | -23.56082 | -46.28903 | 10506 ft | 323 kts | 239° |
| 2026-04-22 23:52 | -23.56888 | -46.31278 | 10734 ft | 343 kts | 254° |
| 2026-04-22 23:52 | -23.57394 | -46.33839 | 10950 ft | 346 kts | 258° |
| 2026-04-22 23:52 | -23.57822 | -46.36388 | 11160 ft | 348 kts | 258° |
| 2026-04-22 23:52 | -23.58267 | -46.38983 | 11372 ft | 348 kts | 257° |
| 2026-04-22 23:53 | -23.58741 | -46.41579 | 11591 ft | 350 kts | 257° |
| 2026-04-22 23:53 | -23.59237 | -46.44175 | 11806 ft | 350 kts | 257° |
| 2026-04-22 23:53 | -23.59747 | -46.46784 | 12022 ft | 351 kts | 256° |
| 2026-04-22 23:53 | -23.60260 | -46.49388 | 12262 ft | 352 kts | 256° |
| 2026-04-22 23:54 | -23.60772 | -46.52003 | 12492 ft | 354 kts | 258° |
| 2026-04-22 23:54 | -23.61170 | -46.54657 | 12726 ft | 355 kts | 259° |
| 2026-04-22 23:54 | -23.61559 | -46.57323 | 12951 ft | 356 kts | 259° |
| 2026-04-22 23:54 | -23.61949 | -46.59989 | 13175 ft | 357 kts | 259° |
| 2026-04-22 23:55 | -23.62352 | -46.62666 | 13402 ft | 358 kts | 257° |
| 2026-04-22 23:55 | -23.63024 | -46.65276 | 13632 ft | 358 kts | 248° |
| 2026-04-22 23:55 | -23.64062 | -46.67705 | 13858 ft | 358 kts | 239° |
| 2026-04-22 23:55 | -23.65404 | -46.70025 | 14088 ft | 358 kts | 236° |
| 2026-04-22 23:56 | -23.66746 | -46.72318 | 14289 ft | 358 kts | 236° |
| 2026-04-22 23:56 | -23.68066 | -46.74590 | 14423 ft | 359 kts | 237° |
| 2026-04-22 23:56 | -23.69425 | -46.76872 | 14626 ft | 359 kts | 231° |
| 2026-04-22 23:56 | -23.71216 | -46.78769 | 14832 ft | 359 kts | 214° |
| 2026-04-22 23:57 | -23.73453 | -46.79966 | 15038 ft | 360 kts | 196° |
| 2026-04-22 23:57 | -23.75901 | -46.80584 | 15248 ft | 362 kts | 192° |
| 2026-04-22 23:57 | -23.78367 | -46.81162 | 15455 ft | 363 kts | 192° |
| 2026-04-22 23:57 | -23.80842 | -46.81743 | 15668 ft | 365 kts | 192° |
| 2026-04-22 23:58 | -23.83326 | -46.82331 | 15889 ft | 365 kts | 192° |
| 2026-04-22 23:58 | -23.85816 | -46.82922 | 16093 ft | 367 kts | 192° |
| 2026-04-22 23:58 | -23.88324 | -46.83519 | 16311 ft | 368 kts | 192° |
| 2026-04-22 23:58 | -23.90832 | -46.84118 | 16538 ft | 369 kts | 192° |
| 2026-04-22 23:59 | -23.93347 | -46.84718 | 16750 ft | 371 kts | 192° |
| 2026-04-22 23:59 | -23.95872 | -46.85321 | 16971 ft | 372 kts | 192° |
| 2026-04-22 23:59 | -23.98405 | -46.85926 | 17199 ft | 373 kts | 193° |
| 2026-04-22 23:59 | -24.00949 | -46.86534 | 17422 ft | 374 kts | 193° |
| 2026-04-23 00:00 | -24.06024 | -46.87747 | 17871 ft | 377 kts | 193° |
| 2026-04-23 00:00 | -24.08592 | -46.88362 | 18102 ft | 378 kts | 193° |
| 2026-04-23 00:00 | -24.11169 | -46.88980 | 18341 ft | 379 kts | 193° |
| 2026-04-23 00:01 | -24.13750 | -46.89598 | 18543 ft | 380 kts | 193° |
| 2026-04-23 00:01 | -24.16339 | -46.90218 | 18745 ft | 381 kts | 193° |
| 2026-04-23 00:01 | -24.18931 | -46.90840 | 18942 ft | 381 kts | 193° |
| 2026-04-23 00:01 | -24.21526 | -46.91462 | 19133 ft | 382 kts | 193° |
| 2026-04-23 00:02 | -24.24129 | -46.92086 | 19345 ft | 383 kts | 193° |
| 2026-04-23 00:02 | -24.26742 | -46.92713 | 19551 ft | 384 kts | 193° |
| 2026-04-23 00:02 | -24.29354 | -46.93340 | 19754 ft | 385 kts | 193° |
| 2026-04-23 00:02 | -24.31973 | -46.93969 | 19954 ft | 385 kts | 193° |
| 2026-04-23 00:03 | -24.34601 | -46.94600 | 20167 ft | 386 kts | 193° |
| 2026-04-23 00:03 | -24.37224 | -46.95230 | 20380 ft | 387 kts | 193° |
| 2026-04-23 00:03 | -24.39863 | -46.95865 | 20586 ft | 388 kts | 193° |
| 2026-04-23 00:03 | -24.42470 | -46.96492 | 20801 ft | 389 kts | 193° |
| 2026-04-23 00:04 | -24.45114 | -46.97128 | 21015 ft | 390 kts | 194° |
| 2026-04-23 00:04 | -24.47768 | -46.97767 | 21232 ft | 390 kts | 194° |
| 2026-04-23 00:04 | -24.50427 | -46.98408 | 21441 ft | 392 kts | 194° |
| 2026-04-23 00:04 | -24.53088 | -46.99049 | 21672 ft | 393 kts | 194° |
| 2026-04-23 00:05 | -24.55763 | -46.99693 | 21899 ft | 394 kts | 194° |
| 2026-04-23 00:05 | -24.58428 | -47.00406 | 22116 ft | 393 kts | 198° |
| 2026-04-23 00:05 | -24.60991 | -47.01442 | 22345 ft | 393 kts | 205° |
| 2026-04-23 00:05 | -24.63425 | -47.02807 | 22567 ft | 393 kts | 212° |
| 2026-04-23 00:06 | -24.65731 | -47.04428 | 22795 ft | 394 kts | 214° |
| 2026-04-23 00:06 | -24.68036 | -47.06068 | 23027 ft | 395 kts | 214° |
| 2026-04-23 00:06 | -24.70347 | -47.07702 | 23259 ft | 395 kts | 214° |
| 2026-04-23 00:06 | -24.72637 | -47.09321 | 23493 ft | 396 kts | 214° |
| 2026-04-23 00:07 | -24.74981 | -47.10981 | 23952 ft | 393 kts | 214° |
| 2026-04-23 00:07 | -24.77198 | -47.12550 | 24962 ft | 374 kts | 214° |
| 2026-04-23 00:07 | -24.79352 | -47.14074 | 26148 ft | 353 kts | 215° |
| 2026-04-23 00:07 | -24.81351 | -47.15490 | 27312 ft | 331 kts | 216° |
| 2026-04-23 00:08 | -24.83231 | -47.16823 | 28324 ft | 315 kts | 216° |
| 2026-04-23 00:08 | -24.85051 | -47.18120 | 28694 ft | 319 kts | 216° |
| 2026-04-23 00:08 | -24.86925 | -47.19459 | 28983 ft | 322 kts | 216° |
| 2026-04-23 00:08 | -24.88807 | -47.20802 | 29348 ft | 324 kts | 217° |
| 2026-04-23 00:09 | -24.90707 | -47.22156 | 29665 ft | 326 kts | 217° |
| 2026-04-23 00:09 | -24.92620 | -47.23519 | 29987 ft | 329 kts | 217° |
| 2026-04-23 00:09 | -24.94571 | -47.24910 | 30102 ft | 339 kts | 217° |
| 2026-04-23 00:09 | -24.96581 | -47.26345 | 30111 ft | 350 kts | 217° |
| 2026-04-23 00:10 | -24.98663 | -47.27831 | 30112 ft | 362 kts | 216° |
| 2026-04-23 00:10 | -25.00813 | -47.29365 | 30119 ft | 374 kts | 216° |
| 2026-04-23 00:10 | -25.03032 | -47.30947 | 30121 ft | 386 kts | 216° |
| 2026-04-23 00:10 | -25.05321 | -47.32580 | 30117 ft | 397 kts | 216° |
| 2026-04-23 00:11 | -25.07672 | -47.34258 | 30120 ft | 408 kts | 216° |
| 2026-04-23 00:11 | -25.10087 | -47.35982 | 30115 ft | 419 kts | 216° |
| 2026-04-23 00:11 | -25.12566 | -47.37753 | 30117 ft | 429 kts | 216° |
| 2026-04-23 00:12 | -25.17628 | -47.41369 | 30115 ft | 434 kts | 216° |
| 2026-04-23 00:12 | -25.22691 | -47.44989 | 30118 ft | 433 kts | 216° |
| 2026-04-23 00:13 | -25.27753 | -47.48618 | 30121 ft | 434 kts | 216° |
| 2026-04-23 00:13 | -25.32779 | -47.52229 | 30112 ft | 434 kts | 216° |
| 2026-04-23 00:14 | -25.37837 | -47.55865 | 30115 ft | 433 kts | 216° |
| 2026-04-23 00:14 | -25.42890 | -47.59502 | 30118 ft | 433 kts | 216° |
| 2026-04-23 00:15 | -25.47948 | -47.63146 | 30114 ft | 433 kts | 216° |
| 2026-04-23 00:15 | -25.53009 | -47.66796 | 30114 ft | 433 kts | 217° |
| 2026-04-23 00:16 | -25.58065 | -47.70445 | 30109 ft | 433 kts | 217° |
| 2026-04-23 00:16 | -25.63085 | -47.74072 | 30111 ft | 433 kts | 217° |
| 2026-04-23 00:17 | -25.68135 | -47.77724 | 30110 ft | 433 kts | 217° |
| 2026-04-23 00:17 | -25.70646 | -47.79541 | 29888 ft | 429 kts | 217° |
| 2026-04-23 00:17 | -25.73138 | -47.81345 | 29360 ft | 426 kts | 217° |
| 2026-04-23 00:17 | -25.75607 | -47.83135 | 28757 ft | 423 kts | 217° |
| 2026-04-23 00:18 | -25.78064 | -47.84917 | 28115 ft | 419 kts | 217° |
| 2026-04-23 00:18 | -25.80494 | -47.86680 | 27509 ft | 415 kts | 216° |
| 2026-04-23 00:18 | -25.82902 | -47.88429 | 26896 ft | 411 kts | 216° |
| 2026-04-23 00:18 | -25.85284 | -47.90159 | 26292 ft | 408 kts | 216° |
| 2026-04-23 00:19 | -25.86854 | -47.91300 | 25889 ft | 406 kts | 216° |
| 2026-04-23 00:19 | -25.89207 | -47.93011 | 25308 ft | 402 kts | 216° |
| 2026-04-23 00:19 | -25.91539 | -47.94708 | 24746 ft | 399 kts | 216° |
| 2026-04-23 00:19 | -25.93852 | -47.96391 | 24182 ft | 396 kts | 216° |
| 2026-04-23 00:20 | -25.96146 | -47.98062 | 23620 ft | 393 kts | 215° |
| 2026-04-23 00:20 | -25.98427 | -47.99724 | 22972 ft | 390 kts | 215° |
| 2026-04-23 00:20 | -26.00692 | -48.01376 | 22300 ft | 388 kts | 215° |
| 2026-04-23 00:20 | -26.02909 | -48.03069 | 21653 ft | 385 kts | 219° |
| 2026-04-23 00:21 | -26.05576 | -48.05704 | 20794 ft | 383 kts | 224° |
| 2026-04-23 00:21 | -26.06843 | -48.07065 | 20366 ft | 382 kts | 224° |
| 2026-04-23 00:21 | -26.08753 | -48.09101 | 19763 ft | 380 kts | 224° |
| 2026-04-23 00:21 | -26.10663 | -48.11132 | 19166 ft | 379 kts | 223° |
| 2026-04-23 00:22 | -26.12569 | -48.13158 | 18577 ft | 378 kts | 223° |
| 2026-04-23 00:22 | -26.14464 | -48.15174 | 17971 ft | 376 kts | 223° |
| 2026-04-23 00:22 | -26.16345 | -48.17175 | 17397 ft | 372 kts | 223° |
| 2026-04-23 00:22 | -26.18282 | -48.19067 | 16813 ft | 369 kts | 216° |
| 2026-04-23 00:23 | -26.20371 | -48.20632 | 16255 ft | 365 kts | 211° |
| 2026-04-23 00:23 | -26.22524 | -48.22118 | 15705 ft | 363 kts | 211° |
| 2026-04-23 00:24 | -26.23792 | -48.23001 | 15374 ft | 361 kts | 211° |
| 2026-04-23 00:24 | -26.25759 | -48.24375 | 14890 ft | 359 kts | 211° |
| 2026-04-23 00:24 | -26.27864 | -48.25847 | 14365 ft | 356 kts | 211° |
| 2026-04-23 00:25 | -26.29956 | -48.27311 | 13841 ft | 354 kts | 211° |
| 2026-04-23 00:25 | -26.32039 | -48.28767 | 13287 ft | 351 kts | 211° |
| 2026-04-23 00:25 | -26.34080 | -48.30193 | 12752 ft | 348 kts | 211° |
| 2026-04-23 00:25 | -26.36128 | -48.31624 | 12222 ft | 346 kts | 211° |
| 2026-04-23 00:26 | -26.37936 | -48.32888 | 11762 ft | 343 kts | 211° |
| 2026-04-23 00:26 | -26.39952 | -48.34298 | 11248 ft | 341 kts | 211° |
| 2026-04-23 00:26 | -26.41955 | -48.35699 | 10739 ft | 338 kts | 211° |
| 2026-04-23 00:26 | -26.43931 | -48.37083 | 10430 ft | 330 kts | 211° |
| 2026-04-23 00:27 | -26.45833 | -48.38416 | 10297 ft | 315 kts | 211° |
| 2026-04-23 00:27 | -26.47650 | -48.39688 | 10191 ft | 302 kts | 211° |
| 2026-04-23 00:27 | -26.49379 | -48.40900 | 10045 ft | 290 kts | 211° |
| 2026-04-23 00:27 | -26.51073 | -48.42088 | 9690 ft | 286 kts | 211° |
| 2026-04-23 00:28 | -26.52755 | -48.43266 | 9288 ft | 285 kts | 211° |
| 2026-04-23 00:28 | -26.54427 | -48.44439 | 8889 ft | 283 kts | 211° |
| 2026-04-23 00:28 | -26.56095 | -48.45610 | 8504 ft | 281 kts | 211° |
| 2026-04-23 00:28 | -26.57729 | -48.46757 | 8119 ft | 280 kts | 211° |
| 2026-04-23 00:29 | -26.59374 | -48.47913 | 7742 ft | 278 kts | 211° |
| 2026-04-23 00:29 | -26.61009 | -48.49063 | 7360 ft | 277 kts | 211° |
| 2026-04-23 00:29 | -26.62622 | -48.50198 | 7167 ft | 272 kts | 211° |
| 2026-04-23 00:29 | -26.64248 | -48.51342 | 7115 ft | 278 kts | 211° |
| 2026-04-23 00:30 | -26.65878 | -48.52489 | 7110 ft | 276 kts | 211° |
| 2026-04-23 00:30 | -26.67505 | -48.53634 | 7108 ft | 276 kts | 211° |
| 2026-04-23 00:30 | -26.69104 | -48.54835 | 7110 ft | 278 kts | 218° |
| 2026-04-23 00:30 | -26.70476 | -48.56357 | 7066 ft | 279 kts | 230° |
| 2026-04-23 00:31 | -26.71589 | -48.58140 | 7001 ft | 279 kts | 235° |
| 2026-04-23 00:31 | -26.72675 | -48.59940 | 6925 ft | 279 kts | 234° |
| 2026-04-23 00:31 | -26.73766 | -48.61732 | 6857 ft | 279 kts | 234° |
| 2026-04-23 00:31 | -26.74860 | -48.63521 | 6786 ft | 279 kts | 234° |
| 2026-04-23 00:32 | -26.75958 | -48.65317 | 6714 ft | 279 kts | 234° |
| 2026-04-23 00:32 | -26.77052 | -48.67108 | 6652 ft | 279 kts | 234° |
| 2026-04-23 00:32 | -26.78148 | -48.68900 | 6647 ft | 278 kts | 234° |
| 2026-04-23 00:32 | -26.79210 | -48.70647 | 6642 ft | 279 kts | 234° |
| 2026-04-23 00:33 | -26.80287 | -48.72418 | 6623 ft | 279 kts | 234° |
| 2026-04-23 00:33 | -26.81374 | -48.74203 | 6413 ft | 277 kts | 234° |
| 2026-04-23 00:33 | -26.82461 | -48.75986 | 6082 ft | 277 kts | 234° |
| 2026-04-23 00:33 | -26.83546 | -48.77772 | 5741 ft | 276 kts | 234° |
| 2026-04-23 00:34 | -26.84631 | -48.79558 | 5387 ft | 276 kts | 234° |
| 2026-04-23 00:34 | -26.85691 | -48.81296 | 5279 ft | 265 kts | 234° |
| 2026-04-23 00:34 | -26.86711 | -48.82974 | 5199 ft | 256 kts | 233° |
| 2026-04-23 00:34 | -26.87696 | -48.84599 | 5130 ft | 246 kts | 233° |
| 2026-04-23 00:35 | -26.88832 | -48.85934 | 5025 ft | 230 kts | 208° |
| 2026-04-23 00:35 | -26.90272 | -48.86388 | 4916 ft | 212 kts | 175° |
| 2026-04-23 00:35 | -26.91625 | -48.85927 | 4837 ft | 200 kts | 146° |
| 2026-04-23 00:35 | -26.92757 | -48.85043 | 4620 ft | 198 kts | 144° |
| 2026-04-23 00:36 | -26.93892 | -48.84168 | 4451 ft | 196 kts | 144° |
| 2026-04-23 00:36 | -26.94986 | -48.83327 | 4206 ft | 188 kts | 145° |
| 2026-04-23 00:36 | -26.96072 | -48.82497 | 3814 ft | 190 kts | 144° |
| 2026-04-23 00:36 | -26.96906 | -48.81369 | 3382 ft | 193 kts | 110° |
| 2026-04-23 00:37 | -26.96924 | -48.79894 | 3048 ft | 192 kts | 70° |
| 2026-04-23 00:37 | -26.96238 | -48.78641 | 2835 ft | 187 kts | 54° |
| 2026-04-23 00:37 | -26.95510 | -48.77484 | 2697 ft | 173 kts | 54° |
| 2026-04-23 00:37 | -26.94864 | -48.76444 | 2604 ft | 152 kts | 54° |
| 2026-04-23 00:38 | -26.94288 | -48.75511 | 2539 ft | 140 kts | 53° |
| 2026-04-23 00:38 | -26.93744 | -48.74629 | 2398 ft | 137 kts | 54° |
| 2026-04-23 00:38 | -26.93210 | -48.73756 | 2226 ft | 135 kts | 54° |
| 2026-04-23 00:38 | -26.92690 | -48.72896 | 2040 ft | 133 kts | 54° |
| 2026-04-23 00:39 | -26.92165 | -48.72032 | 1862 ft | 134 kts | 54° |
| 2026-04-23 00:39 | -26.91644 | -48.71177 | 1726 ft | 132 kts | 54° |
| 2026-04-23 00:39 | -26.91138 | -48.70333 | 1691 ft | 130 kts | 55° |
| 2026-04-23 00:39 | -26.90626 | -48.69475 | 1582 ft | 135 kts | 56° |
| 2026-04-23 00:40 | -26.90087 | -48.68582 | 1133 ft | 142 kts | 56° |
| 2026-04-23 00:40 | -26.89503 | -48.67658 | 672 ft | 147 kts | 57° |
| 2026-04-23 00:40 | -26.88925 | -48.66705 | 285 ft | 147 kts | 57° |
| 2026-04-23 00:40 | -26.88369 | -48.65804 | 62 ft | 136 kts | 57° |
| 2026-04-23 00:41 | -26.87897 | -48.65015 | 30 ft | 92 kts | 54° |
| 2026-04-23 00:41 | -26.87703 | -48.64712 | 32 ft | 6 kts | 55° |
| 2026-04-23 00:41 | -26.87668 | -48.64664 | 32 ft | 15 kts | 50° |
| 2026-04-23 00:41 | -26.87591 | -48.64545 | 29 ft | 22 kts | 58° |
| 2026-04-23 00:42 | -26.87499 | -48.64401 | 27 ft | 22 kts | 40° |
| 2026-04-23 00:42 | -26.87468 | -48.64334 | 24 ft | 9 kts | 173° |
| 2026-04-23 00:42 | -26.87513 | -48.64375 | 31 ft | 9 kts | 232° |
| 2026-04-23 00:42 | -26.87550 | -48.64435 | 28 ft | 10 kts | 236° |
| 2026-04-23 00:43 | -26.87596 | -48.64513 | 29 ft | 16 kts | 237° |
| 2026-04-23 00:43 | -26.87677 | -48.64656 | 32 ft | 26 kts | 235° |
| 2026-04-23 00:43 | -26.87786 | -48.64829 | 31 ft | 29 kts | 236° |
| 2026-04-23 00:43 | -26.87858 | -48.64876 | 30 ft | 10 kts | 158° |
| 2026-04-23 00:44 | -26.87920 | -48.64873 | 29 ft | 9 kts | 220° |
| 2026-04-23 00:44 | -26.87969 | -48.64884 | 28 ft | 9 kts | 151° |
| 2026-04-23 00:44 | -26.87979 | -48.64878 | 28 ft | 0 kts | 146° |